Los Angeles, California
Current Conditions -  °F | °C
As of 1:47 PM on Wednesday 26 Nov 2014 (Local Time) from KCQT Reporting Station
Clear Clear  
Wind Chill: 28°   Ceiling: Unl
Heat Index: 28°   Visibility: 10mi
Dew Point: -3°   Wind: 3mph
Humidity: 13%   Direction: NA
Pressure: 30.13"   Gusts: NA
Location:  34.05°N, 118.24°W
Report Text: KCQT 262147Z AUTO VRB03KT 10SM CLR 28/M03 A3013 RMK AO2 SLP199 T02831028
Loading
Personal Weather Stations






























Interactive Weather Map New forecast layout! Learn more

10-Day Weather Forecast

Advertisements
Track Severe Weather on mobile